Flight Track Log - Related Links

Times and Time Zones

All times are in EDT time to prevent confusion due to time zone crossing. See the OPT452 flight status page for this flight to view local times or setup timezone preferences in your user account.

Time Position Orientation Groundspeed Altitude Reporting Facility
EDT Latitude Longitude Course Direction KTS MPH feet Rate Location/Type
Sat 10:50:52 AM 27.2069 -80.3108 288° West 171 197 2,600  Level Miami Center
Sat 10:51:52 AM 27.2244 -80.3628 291° West 186 214 3,700 700 Climbing Miami Center
Sat 10:52:52 AM 27.2439 -80.4242 290° West 209 241 4,000 400 Climbing Miami Center
Sat 10:53:52 AM 27.2758 -80.4906 298° West 236 272 4,500 2,000 Climbing Miami Center
Sat 10:54:52 AM 27.3497 -80.5372 331° Northwest 255 293 8,000 3,400 Climbing Miami Center
Sat 10:55:52 AM 27.4153 -80.5814 329° Northwest 273 314 11,300 2,800 Climbing Miami Center
Sat 10:56:52 AM 27.4811 -80.6256 329° Northwest 290 334 13,600 2,500 Climbing Miami Center
Sat 10:57:52 AM 27.5550 -80.6750 329° Northwest 296 341 16,300 1,700 Climbing Miami Center
Sat 10:58:52 AM 27.6431 -80.7342 329° Northwest 322 371 17,000 350 Climbing Miami Center
Sat 10:59:52 AM 27.7353 -80.7958 329° Northwest 368 423 17,000  Level Miami Center
Sat 11:00:52 AM 27.8297 -80.8578 330° Northwest 390 449 17,000  Level Miami Center
Sat 11:01:52 AM 27.9239 -80.9200 330° Northwest 395 455 17,000  Level Miami Center
Sat 11:02:52 AM 28.0203 -80.9844 329° Northwest 400 460 17,000  Level Miami Center
Sat 11:03:52 AM 28.1039 -81.0439 328° Northwest 395 455 17,000  Level Miami Center
Sat 11:04:52 AM 28.2003 -81.1064 330° Northwest 395 455 17,000 38 Level Miami Center
Sat 11:06:32 AM 28.3603 -81.2131 330° Northwest 396 456 17,100 38 Climbing Jacksonville Center
Sat 11:07:32 AM 28.4569 -81.2775 330° Northwest 396 456 17,100 -50 Level Jacksonville Center
Sat 11:08:32 AM 28.5558 -81.3350 333° Northwest 396 456 17,000  Descending Jacksonville Center
Sat 11:09:32 AM 28.6561 -81.3406 357° North 377 434 17,100 50 Climbing Jacksonville Center
Sat 11:10:32 AM 28.7439 -81.3653 346° North 349 402 17,100  Level Jacksonville Center
Sat 11:11:32 AM 28.8281 -81.4114 334° Northwest 337 388 17,100 -50 Level Jacksonville Center
Sat 11:12:32 AM 28.9119 -81.4575 334° Northwest 332 382 17,000  Descending Jacksonville Center
Sat 11:13:32 AM 29.0000 -81.4967 339° North 332 382 17,100 -151 Climbing Jacksonville Center
Sat 11:14:31 AM 29.0753 -81.5028 356° North 332 382 16,700 -700 Descending Jacksonville Center
Sat 11:15:32 AM 29.1942 -81.4892 North 344 396 15,700 -1,278 Descending Jacksonville Center
Sat 11:16:19 AM 29.2858 -81.4736 North 396 456 14,400 -1,611 Descending Jacksonville Center
Sat 11:17:20 AM 29.3942 -81.4506 11° North 394 453 12,800 -1,625 Descending Jacksonville Center
Sat 11:17:55 AM 29.4586 -81.4400 North 392 451 11,800 -1,667 Descending Jacksonville Center
Sat 11:18:32 AM 29.5211 -81.4294 North 384 442 10,800 -1,622 Descending Jacksonville Center
Sat 11:19:09 AM 29.5733 -81.4169 12° North 316 364 9,800 -1,600 Descending Jacksonville Center
Sat 11:19:32 AM 29.6064 -81.4092 12° North 346 398 9,200 -1,727 Descending Jacksonville Center
Sat 11:20:15 AM 29.6647 -81.3989 North 279 321 7,900 -1,800 Descending Jacksonville Center
Sat 11:20:32 AM 29.6858 -81.3961 North 308 354 7,400 -1,636 Descending Jacksonville Center
Sat 11:21:10 AM 29.7314 -81.3761 21° North 296 341 6,400 -1,500 Descending Jacksonville Center
Sat 11:21:32 AM 29.7583 -81.3567 32° Northeast 289 333 5,900 -1,180 Descending Jacksonville Center
Sat 11:22:11 AM 29.7975 -81.3225 37° Northeast 270 311 5,200 -900 Descending Jacksonville Center
Sat 11:22:32 AM 29.8097 -81.2983 60° Northeast 263 303 5,000 -689 Descending Jacksonville Center
Sat 11:23:12 AM 29.8281 -81.2503 66° East 228 262 4,500 -1,000 Descending Jacksonville Center
Sat 11:23:32 AM 29.8339 -81.2308 71° East 241 277 4,000 -1,574 Descending Jacksonville Center
Sat 11:24:13 AM 29.8714 -81.2111 25° Northeast 226 260 2,900 -1,700 Descending Jacksonville Center
Sat 11:24:32 AM 29.8861 -81.2253 320° Northwest 185 213 2,300 -1,082 Descending Jacksonville Center
Sat 11:25:14 AM 29.9011 -81.2586 297° West 176 203 1,800 -900 Descending Jacksonville Center
Sat 11:25:32 AM 29.9117 -81.2728 311° West 130 150 1,400 -1,000 Descending Jacksonville Center
Sat 11:26:14 AM 29.9244 -81.2917 308° West 125 144 800 -300 Descending Jacksonville Center
Sat 11:26:32 AM 29.9411 -81.2842 21° North 130 150 1,100 8,615 Climbing Jacksonville Center
Sat 11:27:32 AM 29.9728 -81.3028 333° Northwest 130 150 12,000 10,900 Climbing Jacksonville Center
Sat 11:29:00 AM 29.9592 -81.3397 346° North  Level Estimated

Login

Don't have an account? Register now (free) for customized features, flight alerts, and more!